createdAt,value
2018-09-26T00:03:09.330Z,2.50
2018-09-26T00:05:39.858Z,2.50
2018-09-26T00:08:10.333Z,2.50
2018-09-26T00:10:40.745Z,2.40
2018-09-26T00:13:11.250Z,2.40
2018-09-26T00:15:41.622Z,2.40
2018-09-26T00:18:12.230Z,2.40
2018-09-26T00:20:42.548Z,2.40
2018-09-26T00:23:12.818Z,2.40
2018-09-26T00:28:13.258Z,2.30
2018-09-26T00:33:13.365Z,2.10
2018-09-26T00:35:43.719Z,2.00
2018-09-26T00:38:14.521Z,2.00
2018-09-26T00:40:44.858Z,2.10
2018-09-26T00:43:15.194Z,1.90
2018-09-26T00:48:15.457Z,1.70
2018-09-26T00:50:45.790Z,1.90
2018-09-26T00:53:16.302Z,1.80
2018-09-26T00:55:46.756Z,1.70
2018-09-26T00:58:17.366Z,1.60
2018-09-26T01:00:47.862Z,1.70
2018-09-26T01:03:18.309Z,1.60
2018-09-26T01:08:18.365Z,1.50
2018-09-26T01:10:48.778Z,1.60
2018-09-26T01:13:19.269Z,1.50
2018-09-26T01:15:49.685Z,1.40
2018-09-26T01:18:20.121Z,1.30
2018-09-26T01:20:51.833Z,1.40
2018-09-26T01:23:22.227Z,1.40
2018-09-26T01:28:22.465Z,1.50
2018-09-26T01:33:22.606Z,1.50
2018-09-26T01:35:53.269Z,1.40
2018-09-26T01:38:23.762Z,1.30
2018-09-26T01:43:23.694Z,1.30
2018-09-26T01:45:54.098Z,1.30
2018-09-26T01:48:24.405Z,1.30
2018-09-26T01:50:54.846Z,1.30
2018-09-26T01:53:25.169Z,1.30
2018-09-26T01:55:55.497Z,1.20
2018-09-26T01:58:25.805Z,1.20
2018-09-26T02:00:56.146Z,1.30
2018-09-26T02:03:26.661Z,1.20
2018-09-26T02:05:57.105Z,1.20
2018-09-26T02:10:57.120Z,1.20
2018-09-26T02:13:27.571Z,1.20
2018-09-26T02:18:27.581Z,0.90
2018-09-26T02:20:57.934Z,0.80
2018-09-26T02:25:57.825Z,0.90
2018-09-26T02:28:28.293Z,0.90
2018-09-26T02:33:28.401Z,0.90
2018-09-26T02:35:58.740Z,0.90
2018-09-26T02:38:29.182Z,0.90
2018-09-26T02:43:29.325Z,0.90
2018-09-26T02:48:34.424Z,1.10
2018-09-26T02:51:04.674Z,1.00
2018-09-26T02:53:35.043Z,1.00
2018-09-26T02:56:05.323Z,0.90
2018-09-26T02:58:35.666Z,0.90
2018-09-26T03:03:35.969Z,1.00
2018-09-26T03:06:06.342Z,0.90
2018-09-26T03:08:36.747Z,0.90
2018-09-26T03:13:36.683Z,0.70
2018-09-26T03:16:07.139Z,0.70
2018-09-26T03:18:37.616Z,0.60
2018-09-26T03:21:08.028Z,0.60
2018-09-26T03:23:38.710Z,0.60
2018-09-26T03:26:08.989Z,0.50
2018-09-26T03:28:39.639Z,0.50
2018-09-26T03:31:10.022Z,0.50
2018-09-26T03:33:40.615Z,0.50
2018-09-26T03:36:11.026Z,0.50
2018-09-26T03:38:41.424Z,0.50
2018-09-26T03:41:11.715Z,0.50
2018-09-26T03:43:42.121Z,0.50
2018-09-26T03:46:12.393Z,0.50
2018-09-26T03:48:42.894Z,0.50
2018-09-26T03:51:13.211Z,0.50
2018-09-26T03:53:43.710Z,0.50
2018-09-26T03:58:43.567Z,0.50
2018-09-26T04:01:13.970Z,0.50
2018-09-26T04:06:14.134Z,0.30
2018-09-26T04:08:44.627Z,0.30
2018-09-26T04:13:45.211Z,0.40
2018-09-26T04:16:15.642Z,0.40
2018-09-26T04:18:46.089Z,0.40
2018-09-26T04:21:16.417Z,0.40
2018-09-26T04:23:47.145Z,0.40
2018-09-26T04:26:17.979Z,0.40
2018-09-26T04:28:48.337Z,0.40
2018-09-26T04:33:48.485Z,0.70
2018-09-26T04:41:18.300Z,0.80
2018-09-26T04:43:48.750Z,0.90
2018-09-26T04:46:19.182Z,1.00
2018-09-26T04:48:49.490Z,1.00
2018-09-26T04:51:19.762Z,1.00
2018-09-26T04:53:50.140Z,1.00
2018-09-26T04:56:20.608Z,1.00
2018-09-26T04:58:50.965Z,1.10
2018-09-26T05:01:21.408Z,1.10
2018-09-26T05:03:51.706Z,1.10
2018-09-26T05:06:22.157Z,1.20
2018-09-26T05:08:52.654Z,1.20
2018-09-26T05:11:22.943Z,1.20
2018-09-26T05:13:53.237Z,1.20
2018-09-26T05:16:23.586Z,1.20
2018-09-26T05:18:53.990Z,1.30
2018-09-26T05:21:24.341Z,1.40
2018-09-26T05:26:24.340Z,1.60
2018-09-26T05:28:54.717Z,1.70
2018-09-26T05:31:25.406Z,1.80
2018-09-26T05:33:55.709Z,1.80
2018-09-26T05:36:26.080Z,1.90
2018-09-26T05:38:56.482Z,1.80
2018-09-26T05:46:26.629Z,1.50
2018-09-26T05:48:56.873Z,1.50
2018-09-26T05:51:27.202Z,1.50
2018-09-26T05:53:57.630Z,1.60
2018-09-26T05:58:57.717Z,1.70
2018-09-26T06:01:28.219Z,1.80
2018-09-26T06:03:58.555Z,1.80
2018-09-26T06:06:28.874Z,1.80
2018-09-26T06:08:59.323Z,1.90
2018-09-26T06:11:29.830Z,1.90
2018-09-26T06:14:00.449Z,2.10
2018-09-26T06:16:30.821Z,2.30
2018-09-26T06:19:01.343Z,2.40
2018-09-26T06:24:01.351Z,2.70
2018-09-26T06:26:31.740Z,2.70
2018-09-26T06:29:02.196Z,2.90
2018-09-26T06:31:32.557Z,3.00
2018-09-26T06:34:02.818Z,3.10
2018-09-26T06:36:33.033Z,3.20
2018-09-26T06:41:33.164Z,3.40
2018-09-26T06:46:33.173Z,3.70
2018-09-26T06:49:03.601Z,3.90
2018-09-26T06:51:33.972Z,4.00
2018-09-26T06:54:04.384Z,4.20
2018-09-26T06:56:34.701Z,4.20
2018-09-26T06:59:05.034Z,4.30
2018-09-26T07:01:35.612Z,4.40
2018-09-26T07:04:06.058Z,4.40
2018-09-26T07:06:36.439Z,4.50
2018-09-26T07:09:08.901Z,4.70
2018-09-26T07:11:39.517Z,4.90
2018-09-26T07:16:39.445Z,5.10
2018-09-26T07:19:09.854Z,5.30
2018-09-26T07:21:40.058Z,5.50
2018-09-26T07:24:10.426Z,5.70
2018-09-26T07:26:40.736Z,5.80
2018-09-26T07:31:40.698Z,6.10
2018-09-26T07:34:11.142Z,6.20
2018-09-26T07:36:41.447Z,6.30
2018-09-26T07:39:12.746Z,6.50
2018-09-26T07:41:42.989Z,6.70
2018-09-26T07:46:43.205Z,7.20
2018-09-26T07:49:13.633Z,7.30
2018-09-26T07:51:44.005Z,7.40
2018-09-26T07:54:14.464Z,7.60
2018-09-26T07:56:44.725Z,7.90
2018-09-26T08:01:44.910Z,8.30
2018-09-26T08:04:15.274Z,8.50
2018-09-26T08:06:45.845Z,8.70
2018-09-26T08:09:16.306Z,8.90
2018-09-26T08:11:46.625Z,8.90
2018-09-26T08:14:17.019Z,9.00
2018-09-26T08:16:47.317Z,9.40
2018-09-26T08:24:16.873Z,9.70
2018-09-26T08:26:47.037Z,10.20
2018-09-26T08:29:17.409Z,10.50
2018-09-26T08:34:17.417Z,10.60
2018-09-26T08:41:46.878Z,10.90
2018-09-26T08:46:46.977Z,11.50
2018-09-26T08:49:17.289Z,11.50
2018-09-26T08:51:47.634Z,11.80
2018-09-26T08:54:17.905Z,12.00
2018-09-26T08:56:48.313Z,11.90
2018-09-26T08:59:18.655Z,12.00
2018-09-26T09:01:49.545Z,12.10
2018-09-26T09:04:20.024Z,11.80
2018-09-26T09:06:50.342Z,12.00
2018-09-26T09:09:20.631Z,12.20
2018-09-26T09:14:20.883Z,12.40
2018-09-26T09:16:51.378Z,12.40
2018-09-26T09:19:21.619Z,12.30
2018-09-26T09:21:51.950Z,12.40
2018-09-26T09:26:51.957Z,12.20
2018-09-26T09:29:22.369Z,12.20
2018-09-26T09:31:52.758Z,12.10
2018-09-26T09:34:23.080Z,12.20
2018-09-26T09:36:53.361Z,12.70
2018-09-26T09:41:53.645Z,13.40
2018-09-26T09:44:23.970Z,13.20
2018-09-26T09:46:54.342Z,13.30
2018-09-26T09:49:24.718Z,13.40
2018-09-26T09:51:55.154Z,13.20
2018-09-26T09:54:25.633Z,13.40
2018-09-26T09:56:55.950Z,13.60
2018-09-26T09:59:26.321Z,13.30
2018-09-26T10:01:56.624Z,13.20
2018-09-26T10:06:57.166Z,13.20
2018-09-26T10:09:27.549Z,13.30
2018-09-26T10:11:57.921Z,13.30
2018-09-26T10:16:57.986Z,14.30
2018-09-26T10:19:28.196Z,14.20
2018-09-26T10:21:58.470Z,13.90
2018-09-26T10:24:28.798Z,14.10
2018-09-26T10:26:59.017Z,14.40
2018-09-26T10:29:29.153Z,14.50
2018-09-26T10:34:28.985Z,14.60
2018-09-26T10:36:59.235Z,14.50
2018-09-26T10:39:29.510Z,14.00
2018-09-26T10:41:59.782Z,13.90
2018-09-26T10:44:30.002Z,14.20
2018-09-26T10:47:00.225Z,14.20
2018-09-26T10:49:30.569Z,14.50
2018-09-26T10:52:00.717Z,14.20
2018-09-26T10:54:31.005Z,14.10
2018-09-26T10:57:01.271Z,13.90
2018-09-26T10:59:31.549Z,14.00
2018-09-26T11:02:01.713Z,14.50
2018-09-26T11:07:01.517Z,14.80
2018-09-26T11:09:31.745Z,15.00
2018-09-26T11:12:01.931Z,14.90
2018-09-26T11:14:32.254Z,14.90
2018-09-26T11:17:02.405Z,15.00
2018-09-26T11:19:32.542Z,15.10
2018-09-26T11:22:02.745Z,15.00
2018-09-26T11:24:32.947Z,15.20
2018-09-26T11:27:03.154Z,15.60
2018-09-26T11:29:33.481Z,15.50
2018-09-26T11:32:03.863Z,15.00
2018-09-26T11:34:34.010Z,15.30
2018-09-26T11:37:04.277Z,15.30
2018-09-26T11:39:34.467Z,15.20
2018-09-26T11:42:04.621Z,15.50
2018-09-26T11:44:34.883Z,15.80
2018-09-26T11:49:34.534Z,15.80
2018-09-26T11:52:04.767Z,15.80
2018-09-26T11:54:35.030Z,15.90
2018-09-26T11:57:05.413Z,16.30
2018-09-26T11:59:35.541Z,16.50
2018-09-26T12:02:06.144Z,16.80
2018-09-26T12:04:36.458Z,16.90
2018-09-26T12:09:36.467Z,16.40
2018-09-26T12:12:06.747Z,15.80
2018-09-26T12:14:36.969Z,15.80
2018-09-26T12:17:07.209Z,15.40
2018-09-26T12:19:37.396Z,15.50
2018-09-26T12:22:07.714Z,16.10
2018-09-26T12:24:37.880Z,15.70
2018-09-26T12:27:08.109Z,15.70
2018-09-26T12:29:38.193Z,15.60
2018-09-26T12:32:08.349Z,15.60
2018-09-26T12:34:38.642Z,15.50
2018-09-26T12:37:08.929Z,15.40
2018-09-26T12:42:08.934Z,16.00
2018-09-26T12:44:39.273Z,16.30
2018-09-26T12:49:39.104Z,16.00
2018-09-26T12:54:38.858Z,15.60
2018-09-26T12:57:09.134Z,15.50
2018-09-26T12:59:39.437Z,16.00
2018-09-26T13:02:09.631Z,16.40
2018-09-26T13:04:39.753Z,16.20
2018-09-26T13:07:10.070Z,16.00
2018-09-26T13:09:40.298Z,15.50
2018-09-26T13:12:10.638Z,15.50
2018-09-26T13:14:40.790Z,15.50
2018-09-26T13:17:11.006Z,15.10
2018-09-26T13:19:41.130Z,15.40
2018-09-26T13:22:11.309Z,15.30
2018-09-26T13:24:41.518Z,15.10
2018-09-26T13:27:11.817Z,14.80
2018-09-26T13:32:11.767Z,14.70
2018-09-26T13:34:41.825Z,14.50
2018-09-26T13:37:12.085Z,14.60
2018-09-26T13:42:11.968Z,14.70
2018-09-26T13:47:11.905Z,15.00
2018-09-26T13:49:42.073Z,14.90
2018-09-26T13:54:41.926Z,14.50
2018-09-26T13:57:12.250Z,14.60
2018-09-26T13:59:42.326Z,14.50
2018-09-26T14:02:13.100Z,14.50
2018-09-26T14:04:43.220Z,14.40
2018-09-26T14:07:13.394Z,14.30
2018-09-26T14:09:43.667Z,14.40
2018-09-26T14:12:13.910Z,14.40
2018-09-26T14:14:44.056Z,14.50
2018-09-26T14:17:14.661Z,14.40
2018-09-26T14:19:44.785Z,14.40
2018-09-26T14:22:15.041Z,14.40
2018-09-26T14:27:14.669Z,14.40
2018-09-26T14:34:44.089Z,14.50
2018-09-26T14:37:14.210Z,14.40
2018-09-26T14:39:47.305Z,14.50
2018-09-26T14:42:18.788Z,14.50
2018-09-26T14:44:49.017Z,14.40
2018-09-26T14:47:19.203Z,14.40
2018-09-26T14:49:49.734Z,14.30
2018-09-26T14:52:19.938Z,14.40
2018-09-26T14:54:50.129Z,14.30
2018-09-26T14:57:20.632Z,14.30
2018-09-26T15:02:20.585Z,14.30
2018-09-26T15:04:50.838Z,14.40
2018-09-26T15:07:21.011Z,14.30
2018-09-26T15:09:51.281Z,14.30
2018-09-26T15:12:21.501Z,14.30
2018-09-26T15:14:51.722Z,14.30
2018-09-26T15:17:21.909Z,14.30
2018-09-26T15:19:52.167Z,14.20
2018-09-26T15:24:51.873Z,14.20
2018-09-26T15:27:22.050Z,14.10
2018-09-26T15:29:52.286Z,14.10
2018-09-26T15:32:22.979Z,14.10
2018-09-26T15:39:52.462Z,14.00
2018-09-26T15:42:22.819Z,14.00
2018-09-26T15:44:53.038Z,14.00
2018-09-26T15:47:23.170Z,13.90
2018-09-26T15:49:53.402Z,13.90
2018-09-26T15:52:23.739Z,13.90
2018-09-26T15:54:54.171Z,13.80
2018-09-26T15:57:24.469Z,13.80
2018-09-26T15:59:54.647Z,13.80
2018-09-26T16:02:25.025Z,13.70
2018-09-26T16:04:55.341Z,13.60
2018-09-26T16:07:25.494Z,13.60
2018-09-26T16:09:55.597Z,13.60
2018-09-26T16:14:55.566Z,13.50
2018-09-26T16:17:26.169Z,13.40
2018-09-26T16:22:27.040Z,13.20
2018-09-26T16:24:57.133Z,13.20
2018-09-26T16:29:57.094Z,12.90
2018-09-26T16:32:27.362Z,13.00
2018-09-26T16:34:57.509Z,13.00
2018-09-26T16:39:57.725Z,12.90
2018-09-26T16:42:28.018Z,12.80
2018-09-26T16:44:58.025Z,12.70
2018-09-26T16:47:28.088Z,12.60
2018-09-26T16:49:58.314Z,12.40
2018-09-26T16:52:28.590Z,12.30
2018-09-26T16:54:58.754Z,12.20
2018-09-26T16:57:29.119Z,12.20
2018-09-26T16:59:59.267Z,12.20
2018-09-26T17:02:29.462Z,12.20
2018-09-26T17:04:59.593Z,12.20
2018-09-26T17:07:29.773Z,12.10
2018-09-26T17:12:29.680Z,12.10
2018-09-26T17:14:59.850Z,12.00
2018-09-26T17:17:31.059Z,11.90
2018-09-26T17:20:01.267Z,11.80
2018-09-26T17:22:31.593Z,11.70
2018-09-26T17:25:02.684Z,11.70
2018-09-26T17:27:32.906Z,11.60
2018-09-26T17:30:08.425Z,11.60
2018-09-26T17:32:41.726Z,11.50
2018-09-26T17:37:41.497Z,11.50
2018-09-26T17:40:14.930Z,11.40
2018-09-26T17:42:50.466Z,11.30
2018-09-26T17:45:21.397Z,11.30
2018-09-26T17:47:52.546Z,11.30
2018-09-26T17:50:22.694Z,11.40
2018-09-26T17:57:56.658Z,11.30
2018-09-26T18:00:27.646Z,11.30
2018-09-26T18:03:03.551Z,11.20
2018-09-26T18:05:34.598Z,11.20
2018-09-26T18:08:04.814Z,11.20
2018-09-26T18:10:35.867Z,11.20
2018-09-26T18:15:47.413Z,11.10
2018-09-26T18:18:18.731Z,11.00
2018-09-26T18:20:49.603Z,10.90
2018-09-26T18:23:20.817Z,10.90
2018-09-26T18:25:54.489Z,10.90
2018-09-26T18:28:25.820Z,10.80
2018-09-26T18:31:01.425Z,10.60
2018-09-26T18:33:31.732Z,10.60
2018-09-26T18:36:02.698Z,10.50
2018-09-26T18:41:13.494Z,10.50
2018-09-26T18:43:43.805Z,10.50
2018-09-26T18:48:51.285Z,10.50
2018-09-26T18:51:21.554Z,10.50
2018-09-26T18:58:55.717Z,10.40
2018-09-26T19:03:55.425Z,10.50
2018-09-26T19:11:29.453Z,10.60
2018-09-26T19:13:59.697Z,10.80
2018-09-26T19:16:30.775Z,10.90
2018-09-26T19:19:01.686Z,11.00
2018-09-26T19:21:33.887Z,11.00
2018-09-26T19:31:40.757Z,11.10
2018-09-26T19:34:10.732Z,11.00
2018-09-26T19:36:40.730Z,11.00
2018-09-26T19:39:11.615Z,11.10
2018-09-26T19:41:41.486Z,11.00
2018-09-26T19:44:12.741Z,11.00
2018-09-26T19:46:43.853Z,11.10
2018-09-26T19:51:43.574Z,11.10
2018-09-26T19:56:43.201Z,11.10
2018-09-26T20:01:55.049Z,11.00
2018-09-26T20:06:55.041Z,11.00
2018-09-26T20:11:54.995Z,11.10
2018-09-26T20:14:25.248Z,11.10
2018-09-26T20:16:55.501Z,11.20
2018-09-26T20:19:25.933Z,11.20
2018-09-26T20:24:25.668Z,11.20
2018-09-26T20:26:55.693Z,11.20
2018-09-26T20:29:25.787Z,11.30
2018-09-26T20:31:55.717Z,11.30
2018-09-26T20:34:25.595Z,11.40
2018-09-26T20:36:55.856Z,11.50
2018-09-26T20:39:25.782Z,11.50
2018-09-26T20:41:55.715Z,11.50
2018-09-26T20:44:25.595Z,11.50
2018-09-26T20:46:55.637Z,11.60
2018-09-26T20:49:26.342Z,11.50
2018-09-26T20:54:25.995Z,11.40
2018-09-26T20:56:55.930Z,11.30
2018-09-26T20:59:26.258Z,11.30
2018-09-26T21:01:56.268Z,11.20
2018-09-26T21:04:26.220Z,11.20
2018-09-26T21:06:56.344Z,11.20
2018-09-26T21:09:26.235Z,11.20
2018-09-26T21:11:56.264Z,11.20
2018-09-26T21:14:26.214Z,11.20
2018-09-26T21:16:56.323Z,11.10
2018-09-26T21:24:25.633Z,10.90
2018-09-26T21:26:56.231Z,11.00
2018-09-26T21:29:26.539Z,11.00
2018-09-26T21:31:56.873Z,11.20
2018-09-26T21:34:27.245Z,11.30
2018-09-26T21:36:57.525Z,11.40
2018-09-26T21:39:27.837Z,11.40
2018-09-26T21:41:58.002Z,11.40
2018-09-26T21:44:28.608Z,11.40
2018-09-26T21:46:59.726Z,11.50
2018-09-26T21:49:29.938Z,11.50
2018-09-26T21:51:59.961Z,11.50
2018-09-26T21:54:30.068Z,11.60
2018-09-26T21:57:00.322Z,11.60
2018-09-26T21:59:30.410Z,11.70
2018-09-26T22:02:00.646Z,11.80
2018-09-26T22:04:30.890Z,11.90
2018-09-26T22:07:01.105Z,11.90
2018-09-26T22:09:31.450Z,12.00
2018-09-26T22:12:01.655Z,12.00
2018-09-26T22:14:31.874Z,12.00
2018-09-26T22:17:01.982Z,12.10
2018-09-26T22:19:32.321Z,12.10
2018-09-26T22:22:02.413Z,12.10
2018-09-26T22:24:32.585Z,12.10
2018-09-26T22:27:02.766Z,12.10
2018-09-26T22:29:32.965Z,12.10
2018-09-26T22:32:03.254Z,12.20
2018-09-26T22:34:33.389Z,12.20
2018-09-26T22:37:03.746Z,12.10
2018-09-26T22:39:33.866Z,12.10
2018-09-26T22:42:04.225Z,12.00
2018-09-26T22:44:34.346Z,11.90
2018-09-26T22:47:04.613Z,11.90
2018-09-26T22:52:04.462Z,11.90
2018-09-26T22:54:34.684Z,11.90
2018-09-26T22:57:04.959Z,12.10
2018-09-26T22:59:35.251Z,12.10
2018-09-26T23:02:05.584Z,12.20
2018-09-26T23:04:35.767Z,12.40
2018-09-26T23:07:06.003Z,12.40
2018-09-26T23:09:36.216Z,12.50
2018-09-26T23:12:06.438Z,12.70
2018-09-26T23:14:36.607Z,12.70
2018-09-26T23:17:07.242Z,12.70
2018-09-26T23:19:37.482Z,12.80
2018-09-26T23:22:07.841Z,12.80
2018-09-26T23:24:38.006Z,12.80
2018-09-26T23:27:08.268Z,12.80
2018-09-26T23:29:38.685Z,12.80
2018-09-26T23:39:37.941Z,12.70
2018-09-26T23:42:08.334Z,12.70
2018-09-26T23:49:37.713Z,12.80
2018-09-26T23:52:08.035Z,12.80
2018-09-26T23:54:38.370Z,12.80
2018-09-26T23:57:08.687Z,12.80
2018-09-26T23:59:38.945Z,12.80
